Weather observations for the past three days for
Sacramento Mather Airport
Imperial (Metric)
Date Time (pdt) Wind (mph) Vis. (mi.) Weather Sky Cond. Temperature (ºF) Relative Humidity Wind Chill (°F) Heat Index (°F) Pressure Precipitation (in)
Air Dwpt 6 hour altimeter (in) sea level (mb) 1 hr 3 hr 6 hr
Max. Min.
01 02:55 SE 12 10.00 Overcast OVC020 57.4 51.6 81% 29.9 0.0
01 02:35 SE 10 10.00 Overcast OVC020 57 51.6 82% 29.9 0.0
01 02:15 SE 9 10.00 Overcast OVC020 56.7 51.3 82% 29.9 0.0
01 01:55 SE 10 10.00 Mostly Cloudy BKN020 56.7 51.6 83% 29.91 0.0
01 01:35 SE 10 10.00 Mostly Cloudy BKN020 56.5 51.4 83% 29.91 0.0
01 01:15 SE 12 10.00 NULL NULL 56.5 51.6 84% 29.9 0.0
01 00:55 SE 12 10.00 Partly Cloudy SCT020 56.8 52 84% 29.9 0.0
01 00:35 SE 13 10.00 Fair CLR 56.8 52.2 84% 29.9 0.0
01 00:15 SE 10 10.00 Fair CLR 56.5 52 85% 29.9 0.0
31 23:55 SE 9 10.00 Fair CLR 57.7 52.3 82% 29.9 0.0
31 23:35 SE 10 10.00 Fair CLR 57.4 52.2 83% 29.9 0.0
31 23:15 SE 10 10.00 Fair CLR 57 52 83% 29.9 0.0
31 22:55 SE 8 10.00 Fair CLR 58.3 52.3 75.6 58.3 81% 29.89 0.0
31 22:35 S 8 10.00 Fair CLR 59.2 52.3 78% 29.89 0.0
31 22:15 S 10 10.00 Fair CLR 60.3 52.7 76% 29.89 0.0
31 21:55 S 9 10.00 Fair CLR 61.2 52.9 74% 29.89 0.0
31 21:35 S 10 10.00 Fair CLR 61.3 53.1 74% 29.89 0.0
31 21:15 SW 12 10.00 Fair CLR 62.2 53.2 73% 29.88 0.0
31 20:55 S 10 10.00 Fair CLR 62.6 53.4 72% 29.87 0.0
31 20:35 S 12 10.00 Fair CLR 62.8 53.6 72% 29.86 0.0
31 20:15 SW 13 10.00 Fair CLR 63.7 53.8 70% 29.86 0.0
31 19:55 SW 17 10.00 Fair CLR 64.6 54 69% 29.85 0.0
31 19:35 SW 15 9.00 Fair CLR 65.7 54 66% 29.85 0.0
31 19:15 SW 15 10.00 Fair CLR 67.1 53.6 62% 29.84 0.0
31 18:55 SW 18 10.00 Fair CLR 69.6 52.9 55% 29.84 0.0
31 18:35 SW 15 10.00 Fair CLR 71.2 53.1 53% 29.83 0.0
31 18:15 SW 15 10.00 Fair CLR 72 52.5 51% 29.83 0.0
31 17:55 SW 13 10.00 Fair CLR 73.9 52 46% 29.83 0.0
31 17:35 SW 16 10.00 Fair CLR 74.7 52.3 46% 29.84 0.0
31 17:15 SW 12 10.00 Fair CLR 75.4 51.4 43% 78 29.84 0.0
31 16:55 SW 14 10.00 Fair CLR 76.3 52 77.4 68 43% 78 29.84 0.0
31 16:35 SW 15 10.00 Fair CLR 75.9 52.2 44% 78 29.84 0.0
31 16:15 SW 15 10.00 Fair CLR 75.7 52.9 45% 78 29.84 0.0
31 15:55 S 12 G 18 10.00 Fair CLR 76.1 53.1 45% 78 29.85 0.0
31 15:35 SW 16 10.00 Fair CLR 77.2 53.1 43% 78 29.85 0.0
31 15:15 SW 14 G 20 10.00 Fair CLR 77.2 52.9 43% 78 29.86 0.0
31 14:55 SW 10 G 20 10.00 Fair CLR 76.8 53.1 44% 78 29.86 0.0
31 14:35 SW 15 G 21 10.00 Fair CLR 76.8 52.2 42% 78 29.87 0.0
31 14:15 SW 10 10.00 Fair CLR 76.1 52.2 43% 78 29.87 0.0
31 13:55 SW 12 G 16 10.00 Fair CLR 75.4 52.3 45% 78 29.88 0.0
31 13:35 SW 10 G 17 10.00 Fair CLR 74.5 52 45% 29.88 0.0
31 13:15 SW 9 10.00 Fair CLR 73.4 52.7 48% 29.88 0.0
31 12:55 SW 14 G 18 10.00 Fair CLR 72.1 52.2 50% 29.89 0.0
31 12:35 SW 17 10.00 Fair CLR 73 52.2 48% 29.9 0.0
31 12:15 SW 13 G 28 10.00 Fair CLR 71.8 52.9 52% 29.9 0.0
31 11:55 SW 12 10.00 Fair CLR 68.9 52.5 56% 29.9 0.0
31 11:15 S 13 10.00 Fair CLR 69.3 52 54% 29.9 0.0
31 10:55 SW 14 10.00 Fair CLR 67.6 52.9 67.8 54.9 59% 29.9 0.0
31 10:35 SW 9 10.00 Fair CLR 67.1 53.1 61% 29.9 0.0
31 10:15 SW 12 10.00 Fair CLR 66.4 53.1 62% 29.9 0.0
31 09:55 SW 10 10.00 Fair CLR 64.9 53.2 66% 29.89 0.0
31 09:35 S 9 10.00 Fair CLR 64.6 53.1 66% 29.89 0.0
31 09:15 SW 9 10.00 Fair CLR 64 53.1 68% 29.89 0.0
31 08:55 SW 10 10.00 Fair CLR 63 53.2 71% 29.89 0.0
31 08:35 SW 8 9.00 Fair CLR 62.2 53.2 73% 29.89 0.0
31 08:15 SW 12 10.00 Fair CLR 61 52.9 75% 29.89 0.0
31 07:55 SW 8 9.00 Fair CLR 59.2 53.1 80% 29.88 0.0
31 07:15 SW 7 7.00 Fair CLR 56.7 52.9 87% 29.87 0.0
31 06:55 SW 5 7.00 Fair CLR 55.6 52.3 89% 29.86 0.0
31 06:35 SW 6 7.00 Fair CLR 55 52 90% 29.85 0.0
31 06:15 SW 7 9.00 Fair CLR 55.6 52.2 88% 29.85 0.0
31 05:55 SW 6 9.00 Fair CLR 55.6 52.2 88% 29.84 0.0
31 05:35 S 5 9.00 Fair CLR 55.8 52 87% 29.84 0.0
31 05:15 S 7 10.00 Fair CLR 56.3 52.3 87% 29.84 0.0
31 04:55 S 6 10.00 Fair CLR 56.5 51.8 62.6 56.1 84% 29.84 0.0
31 04:35 S 6 10.00 Fair CLR 57.2 51.8 82% 29.83 0.0
31 04:15 S 7 10.00 Fair CLR 57.9 51.6 80% 29.83 0.0
31 03:55 S 7 10.00 Fair CLR 59.5 52 76% 29.83 0.0
31 03:35 S 8 10.00 Fair CLR 59.4 52.2 77% 29.83 0.0
31 03:15 S 9 10.00 Fair CLR 58.8 51.1 76% 29.83 0.0
31 02:55 S 5 10.00 Fair CLR 61 51.1 70% 29.83 0.0
31 02:35 S 8 10.00 Fair CLR 60.1 51.1 72% 29.83 0.0
31 02:15 S 7 10.00 Fair CLR 59.9 50.9 72% 29.83 0.0
31 01:55 S 6 10.00 Fair CLR 61.3 51.1 69% 29.83 0.0
31 01:35 S 7 10.00 Fair CLR 60.8 51.3 71% 29.83 0.0
31 01:15 S 6 10.00 Fair CLR 62.2 51.3 67% 29.83 0.0
31 00:55 S 8 10.00 Fair CLR 60.4 51.4 72% 29.83 0.0
31 00:35 S 8 10.00 Fair CLR 60.4 51.6 73% 29.83 0.0
31 00:15 S 8 10.00 Fair CLR 59.7 51.4 74% 29.83 0.0
30 23:55 SE 7 10.00 Fair CLR 60.1 51.3 73% 29.83 0.0
30 23:35 SE 7 10.00 Fair CLR 59.4 51.1 74% 29.83 0.0
30 23:15 SE 6 10.00 Fair CLR 60.3 50.7 71% 29.83 0.0
30 22:55 SE 6 10.00 Fair CLR 63 51.6 90.3 62.4 67% 29.83 0.0
30 22:35 SE 8 10.00 Fair CLR 63.1 51.1 65% 29.83 0.0
30 22:15 S 5 10.00 Fair CLR 65.8 51.4 60% 29.83 0.0
30 21:55 SW 5 10.00 Fair CLR 68 51.8 56% 29.82 0.0
30 21:35 SW 6 10.00 Fair CLR 69.4 52.2 54% 29.82 0.0
30 21:15 SW 8 10.00 Fair CLR 70.7 51.8 51% 29.82 0.0
30 20:55 SW 12 10.00 Fair CLR 74.1 49.8 42% 29.81 0.0
30 20:35 SW 10 10.00 Fair CLR 72.9 48 41% 29.8 0.0
30 20:15 SW 7 10.00 Fair CLR 74.8 47.7 38% 29.8 0.0
30 19:55 SW 9 10.00 Fair CLR 78.3 47.8 34% 79 29.8 0.0
30 19:35 SW 10 10.00 Fair CLR 79.9 45.3 30% 79 29.8 0.0
30 19:15 SW 10 10.00 Fair CLR 83.1 47.3 29% 81 29.79 0.0
30 18:55 SW 10 10.00 Fair CLR 86 47.1 26% 83 29.79 0.0
30 18:35 SW 9 10.00 Fair CLR 88 47.3 24% 85 29.79 0.0
30 18:15 SW 6 10.00 Fair CLR 88.7 43.5 21% 85 29.79 0.0
30 17:55 SW 7 10.00 Fair CLR 89.8 42.8 19% 86 29.8 0.0
30 17:35 Vrbl 5 10.00 Fair CLR 89.1 45.1 22% 86 29.8 0.0
30 17:15 Vrbl 3 10.00 Fair CLR 89.6 46.4 22% 86 29.8 0.0
30 16:55 W 6 10.00 Fair CLR 89.8 46.8 90 72.1 23% 86 29.8 0.0
30 16:35 W 7 10.00 Fair CLR 90 46.9 23% 87 29.81 0.0
30 16:15 Vrbl 7 10.00 Fair CLR 89.1 46.4 23% 86 29.81 0.0
30 15:55 W 5 10.00 Fair CLR 88.9 45.3 22% 85 29.82 0.0
30 15:35 W 7 10.00 Fair CLR 88.9 46.4 23% 86 29.83 0.0
30 15:15 Vrbl 7 10.00 Fair CLR 88.3 48.2 25% 85 29.84 0.0
30 14:55 W 5 10.00 Fair CLR 86.7 50.5 29% 84 29.85 0.0
30 14:35 Vrbl 3 10.00 Fair CLR 86.2 50.7 29% 84 29.85 0.0
30 14:15 Calm 10.00 Fair CLR 85.6 51.6 31% 84 29.86 0.0
30 13:55 Vrbl 5 10.00 Fair CLR 83.3 51.3 33% 82 29.87 0.0
30 13:15 Vrbl 6 10.00 Fair CLR 81.1 52.5 37% 80 29.88 0.0
30 12:55 SW 5 10.00 Fair CLR 79.2 51.8 39% 79 29.88 0.0
30 12:15 Calm 10.00 Fair CLR 77.2 52.3 42% 78 29.89 0.0
30 11:55 Vrbl 3 10.00 Fair CLR 76.3 52.7 44% 78 29.9 0.0
30 11:35 Calm 10.00 Fair CLR 75.2 52.9 46% 78 29.91 0.0
30 11:15 S 5 10.00 Fair CLR 74.3 52.9 47% 29.91 0.0
30 10:55 Vrbl 3 10.00 Fair CLR 72 52.7 72.3 54.3 51% 29.91 0.0
30 10:35 SW 5 10.00 Fair CLR 70.7 52.7 53% 29.92 0.0
30 10:15 S 5 10.00 Fair CLR 69.8 52.9 55% 29.92 0.0
30 09:55 SE 5 10.00 Fair CLR 68.2 52.7 58% 29.91 0.0
30 09:35 Calm 10.00 Fair CLR 66.2 52.9 62% 29.91 0.0
30 09:15 S 3 10.00 Fair CLR 65.8 52.9 63% 29.91 0.0
30 08:55 SW 3 10.00 Fair CLR 63.9 52.7 67% 29.91 0.0
30 08:35 S 5 10.00 Fair CLR 63 52.7 69% 29.91 0.0
30 08:15 S 7 10.00 Fair CLR 61.9 52.7 72% 29.91 0.0
30 07:55 SE 3 10.00 Fair CLR 60.3 52.2 75% 29.91 0.0
30 07:35 S 5 9.00 Fair CLR 59 52 78% 29.91 0.0
30 07:15 SE 3 8.00 Fair CLR 57 50.2 78% 29.9 0.0
30 06:55 Calm 9.00 Fair CLR 57.6 49.5 75% 29.89 0.0
30 06:35 Calm 8.00 Fair CLR 54.3 48.2 80% 29.89 0.0
30 06:15 Calm 9.00 Fair CLR 57.4 49.5 75% 29.89 0.0
30 05:55 SW 7 10.00 Fair CLR 55.6 48.6 77% 29.88 0.0
30 05:35 SE 3 10.00 Fair CLR 56.7 48.9 75% 29.88 0.0
30 05:15 SE 5 10.00 Fair CLR 55.4 48.7 78% 29.88 0.0
30 04:55 SE 5 10.00 Fair CLR 56.3 48.6 64.9 54.7 75% 29.87 0.0
30 04:35 SE 5 10.00 Fair CLR 56.3 49.1 77% 29.88 0.0
30 04:15 E 5 10.00 Fair CLR 56.1 48.9 77% 29.87 0.0
30 03:55 SE 5 10.00 Fair CLR 57.6 48.7 73% 29.87 0.0
30 03:35 S 3 10.00 Fair CLR 58.5 49.3 72% 29.87 0.0
30 03:15 SW 5 10.00 Fair CLR 59.5 49.5 69% 29.87 0.0
30 02:55 S 5 10.00 Fair CLR 57.7 49.3 74% 29.87 0.0
30 02:35 S 6 9.00 Fair CLR 56.8 48.9 75% 29.87 0.0
30 02:15 SE 6 9.00 Fair CLR 56.8 49.1 75% 29.87 0.0
30 01:55 SE 8 9.00 Fair CLR 58.8 49.5 71% 29.87 0.0
30 01:35 S 3 9.00 Fair CLR 60.1 49.8 69% 29.87 0.0
30 01:15 SW 6 9.00 Fair CLR 61.7 50 66% 29.87 0.0
30 00:55 S 7 9.00 Fair CLR 59.4 49.6 70% 29.87 0.0
30 00:35 SE 8 9.00 Fair CLR 59 49.1 70% 29.87 0.0
30 00:15 SE 7 9.00 Fair CLR 60.1 49.5 68% 29.87 0.0
29 23:55 SE 7 9.00 Fair CLR 60.6 49.6 67% 29.87 0.0
29 23:35 S 6 10.00 Fair CLR 64 50.2 61% 29.87 0.0
29 23:15 S 6 9.00 Fair CLR 61.7 49.6 65% 29.88 0.0
29 22:55 S 5 9.00 Fair CLR 65.1 50.4 89.4 62.8 59% 29.88 0.0
29 22:35 SE 9 10.00 Fair CLR 62.8 49.5 62% 29.87 0.0
29 22:15 SE 7 10.00 Fair CLR 64.6 49.1 57% 29.87 0.0
29 21:55 Calm 10.00 Fair CLR 68.2 50.2 53% 29.87 0.0
29 21:35 S 13 10.00 Fair CLR 68.2 49.8 52% 29.86 0.0
29 21:15 Calm 10.00 Fair CLR 67.8 47.5 48% 29.86 0.0
29 20:55 S 9 10.00 Fair CLR 71.8 47.8 43% 29.85 0.0
29 20:35 SW 6 10.00 Fair CLR 71.1 47.3 43% 29.85 0.0
29 20:15 SW 6 10.00 Fair CLR 72.9 46.6 39% 29.84 0.0
29 19:55 SW 7 10.00 Fair CLR 74.7 45 35% 29.84 0.0
29 19:35 SW 9 10.00 Fair CLR 77.7 44.2 31% 78 29.84 0.0
29 19:15 SW 13 10.00 Fair CLR 80.4 43.2 27% 79 29.84 0.0
29 18:55 SW 14 10.00 Fair CLR 83.5 45 26% 81 29.84 0.0
29 18:35 S 14 9.00 Fair CLR 85.3 43.5 23% 82 29.83 0.0
29 18:15 SW 10 9.00 Fair CLR 85.8 45.9 25% 83 29.84 0.0
29 17:55 SW 14 9.00 Fair CLR 87.4 44.1 22% 84 29.84 0.0
29 17:35 SW 14 10.00 Fair CLR 88 43 21% 85 29.84 0.0
29 16:55 SW 13 10.00 Fair CLR 89.4 37 90.3 75.6 16% 85 29.84 0.0
29 16:35 SW 13 10.00 Fair CLR 89.4 33.3 13% 85 29.84 0.0
29 16:15 S 13 G 18 9.00 Fair CLR 89.4 37.2 16% 86 29.85 0.0
29 15:55 SW 12 10.00 Fair CLR 89.6 37.8 16% 86 29.86 0.0
29 15:35 SW 7 10.00 Fair CLR 88.9 39.4 17% 85 29.86 0.0
29 15:15 SW 10 G 17 10.00 Fair CLR 89.2 41.4 19% 86 29.87 0.0
29 14:55 SW 10 10.00 Fair CLR 88.7 44.2 21% 85 29.88 0.0
29 14:35 SW 8 10.00 Fair CLR 87.4 45.5 23% 84 29.89 0.0
29 14:15 SW 8 10.00 Fair CLR 86.5 45.3 24% 84 29.9 0.0
29 13:55 SW 7 10.00 Fair CLR 86.4 44.6 23% 83 29.9 0.0
29 13:35 SW 8 10.00 Fair CLR 85.8 46 25% 83 29.91 0.0
29 13:15 SW 7 10.00 Fair CLR 83.3 46.6 28% 81 29.91 0.0
29 12:55 Vrbl 7 9.00 Fair CLR 82.9 47.1 29% 81 29.92 0.0
29 12:35 SW 9 10.00 Fair CLR 82.4 49.6 32% 81 29.93 0.0
29 12:15 SW 6 10.00 Fair CLR 80.8 49.6 34% 80 29.93 0.0
29 11:55 Vrbl 6 10.00 Fair CLR 79.3 52.2 39% 79 29.94 0.0
29 11:35 SW 8 9.00 Fair CLR 77.7 52.7 42% 79 29.95 0.0
29 11:15 S 9 10.00 Fair CLR 76.5 52.9 44% 78 29.95 0.0
29 10:55 S 6 10.00 Fair CLR 74.1 53.2 74.1 55.4 48% 29.95 0.0
29 10:35 S 7 9.00 Fair CLR 73 53.2 50% 29.95 0.0
29 09:15 S 8 10.00 Fair CLR 67.3 53.2 61% 29.94 0.0
29 08:55 S 6 9.00 Fair CLR 65.7 53.2 64% 29.94 0.0
29 08:35 S 8 10.00 Fair CLR 64.8 52.9 66% 29.94 0.0
29 08:15 S 7 10.00 Fair CLR 63.7 52.5 67% 29.94 0.0
29 07:55 S 6 10.00 Fair CLR 62.6 52.7 70% 29.93 0.0
29 07:35 S 7 9.00 Fair CLR 61.3 52.5 73% 29.93 0.0
29 07:15 S 7 9.00 Fair CLR 59.7 51.4 74% 29.92 0.0
29 06:55 S 6 8.00 Fair CLR 58.6 49.5 72% 29.91 0.0
29 06:35 S 7 9.00 Fair CLR 55.9 48.2 75% 29.91 0.0
29 06:15 S 6 9.00 Fair CLR 57.9 48.6 71% 29.91 0.0
29 05:55 S 5 10.00 Fair CLR 58.1 49.3 73% 29.91 0.0
29 05:35 SW 6 10.00 Fair CLR 59.9 49.6 69% 29.91 0.0
29 05:15 SW 6 10.00 Fair CLR 61.7 49.6 65% 29.91 0.0
29 04:55 S 7 10.00 Fair CLR 62.2 49.3 66 58.1 63% 29.91 0.0
29 04:35 S 6 10.00 Fair CLR 62.6 49.5 62% 29.91 0.0
29 04:15 S 8 10.00 Fair CLR 61.9 49.6 64% 29.91 0.0
29 03:55 SE 7 10.00 Fair CLR 58.6 48.4 69% 29.9 0.0
29 03:35 SE 8 10.00 Fair CLR 60.8 47.7 62% 29.9 0.0
Date Time (pdt) Wind (mph) Vis. (mi.) Weather Sky Cond. Air Dwpt Max. Min. Relative Humidity Wind Chill (°F) Heat Index (°F) altimeter (in) sea level (mb) 1 hr 3 hr 6 hr
6 hour
Temperature (ºF) Pressure Precipitation (in)